sensor_id;sensor_type;location;lat;lon;timestamp;pressure;altitude;pressure_sealevel;temperature;humidity
26807;BME280;14380;49.910;6.792;2023-04-06T00:00:07;99022.78;;;1.06;97.93
26807;BME280;14380;49.910;6.792;2023-04-06T00:02:36;99022.78;;;1.06;97.93
26807;BME280;14380;49.910;6.792;2023-04-06T00:05:03;99021.81;;;1.11;96.96
26807;BME280;14380;49.910;6.792;2023-04-06T00:07:33;99021.81;;;1.11;96.88
26807;BME280;14380;49.910;6.792;2023-04-06T00:10:00;99014.56;;;1.37;93.86
26807;BME280;14380;49.910;6.792;2023-04-06T00:12:27;99012.72;;;1.45;93.03
26807;BME280;14380;49.910;6.792;2023-04-06T00:14:54;99009.31;;;1.40;93.54
26807;BME280;14380;49.910;6.792;2023-04-06T00:17:20;99014.09;;;1.08;97.60
26807;BME280;14380;49.910;6.792;2023-04-06T00:19:49;99014.97;;;1.07;97.31
26807;BME280;14380;49.910;6.792;2023-04-06T00:22:16;99016.03;;;0.89;97.89
26807;BME280;14380;49.910;6.792;2023-04-06T00:24:43;99014.13;;;1.03;97.35
26807;BME280;14380;49.910;6.792;2023-04-06T00:27:09;99014.16;;;1.00;97.72
26807;BME280;14380;49.910;6.792;2023-04-06T00:29:36;99013.16;;;1.12;96.47
26807;BME280;14380;49.910;6.792;2023-04-06T00:32:04;99008.06;;;1.06;95.95
26807;BME280;14380;49.910;6.792;2023-04-06T00:34:30;99002.94;;;0.98;96.85
26807;BME280;14380;49.910;6.792;2023-04-06T00:36:59;99001.41;;;0.80;99.66
26807;BME280;14380;49.910;6.792;2023-04-06T00:39:26;99000.59;;;0.77;99.05
26807;BME280;14380;49.910;6.792;2023-04-06T00:41:53;99001.47;;;0.74;99.20
26807;BME280;14380;49.910;6.792;2023-04-06T00:44:21;99006.91;;;0.54;100.00
26807;BME280;14380;49.910;6.792;2023-04-06T00:46:48;99000.63;;;0.73;99.30
26807;BME280;14380;49.910;6.792;2023-04-06T00:49:15;98992.84;;;0.73;97.79
26807;BME280;14380;49.910;6.792;2023-04-06T00:51:42;98993.66;;;0.79;96.39
26807;BME280;14380;49.910;6.792;2023-04-06T00:54:11;98994.81;;;0.51;98.87
26807;BME280;14380;49.910;6.792;2023-04-06T00:56:38;98983.59;;;0.49;99.28
26807;BME280;14380;49.910;6.792;2023-04-06T00:59:05;98989.59;;;0.53;98.58
26807;BME280;14380;49.910;6.792;2023-04-06T01:01:31;98985.22;;;0.59;98.31
26807;BME280;14380;49.910;6.792;2023-04-06T01:03:59;98988.75;;;0.51;97.44
26807;BME280;14380;49.910;6.792;2023-04-06T01:06:28;98981.78;;;0.53;98.05
26807;BME280;14380;49.910;6.792;2023-04-06T01:08:54;98978.34;;;0.52;98.05
26807;BME280;14380;49.910;6.792;2023-04-06T01:11:23;98977.63;;;0.38;98.95
26807;BME280;14380;49.910;6.792;2023-04-06T01:13:51;98980.03;;;0.56;96.58
26807;BME280;14380;49.910;6.792;2023-04-06T01:16:18;98974.84;;;0.56;96.00
26807;BME280;14380;49.910;6.792;2023-04-06T01:18:44;98974.72;;;0.67;95.91
26807;BME280;14380;49.910;6.792;2023-04-06T01:21:11;98972.31;;;0.50;95.82
26807;BME280;14380;49.910;6.792;2023-04-06T01:23:43;98974.19;;;0.37;96.86
26807;BME280;14380;49.910;6.792;2023-04-06T01:26:10;98968.78;;;0.57;95.50
26807;BME280;14380;49.910;6.792;2023-04-06T01:28:37;98976.59;;;0.54;96.22
26807;BME280;14380;49.910;6.792;2023-04-06T01:31:04;98977.44;;;0.55;95.57
26807;BME280;14380;49.910;6.792;2023-04-06T01:33:31;98973.94;;;0.59;95.31
26807;BME280;14380;49.910;6.792;2023-04-06T01:35:58;98977.53;;;0.46;96.50
26807;BME280;14380;49.910;6.792;2023-04-06T01:38:25;98971.25;;;0.67;95.07
26807;BME280;14380;49.910;6.792;2023-04-06T01:40:53;98961.66;;;0.73;95.27
26807;BME280;14380;49.910;6.792;2023-04-06T01:43:20;98962.56;;;0.68;95.71
26807;BME280;14380;49.910;6.792;2023-04-06T01:45:48;98968.88;;;0.48;96.33
26807;BME280;14380;49.910;6.792;2023-04-06T01:48:14;98964.34;;;0.66;95.51
26807;BME280;14380;49.910;6.792;2023-04-06T01:50:41;98960.13;;;0.55;95.38
26807;BME280;14380;49.910;6.792;2023-04-06T01:53:08;98963.63;;;0.50;95.93
26807;BME280;14380;49.910;6.792;2023-04-06T01:55:35;98960.13;;;0.55;96.05
26807;BME280;14380;49.910;6.792;2023-04-06T01:58:03;98956.69;;;0.52;97.37
26807;BME280;14380;49.910;6.792;2023-04-06T02:00:30;98950.63;;;0.54;97.31
26807;BME280;14380;49.910;6.792;2023-04-06T02:02:57;98955.75;;;0.61;96.57
26807;BME280;14380;49.910;6.792;2023-04-06T02:05:24;98953.22;;;0.53;96.94
26807;BME280;14380;49.910;6.792;2023-04-06T02:07:51;98956.75;;;0.47;97.48
26807;BME280;14380;49.910;6.792;2023-04-06T02:10:18;98949.03;;;0.41;98.92
26807;BME280;14380;49.910;6.792;2023-04-06T02:12:44;98949.97;;;0.35;99.23
26807;BME280;14380;49.910;6.792;2023-04-06T02:15:13;98949.91;;;0.40;99.09
26807;BME280;14380;49.910;6.792;2023-04-06T02:17:39;98949.16;;;0.30;99.34
26807;BME280;14380;49.910;6.792;2023-04-06T02:20:07;98949.97;;;0.35;98.50
26807;BME280;14380;49.910;6.792;2023-04-06T02:22:34;98950.78;;;0.40;98.72
26807;BME280;14380;49.910;6.792;2023-04-06T02:25:01;98950.75;;;0.42;97.81
26807;BME280;14380;49.910;6.792;2023-04-06T02:27:28;98946.53;;;0.33;97.92
26807;BME280;14380;49.910;6.792;2023-04-06T02:29:54;98943.94;;;0.33;97.33
26807;BME280;14380;49.910;6.792;2023-04-06T02:32:23;98942.31;;;0.21;98.61
26807;BME280;14380;49.910;6.792;2023-04-06T02:34:49;98947.53;;;0.21;98.78
26807;BME280;14380;49.910;6.792;2023-04-06T02:37:16;98944.94;;;0.21;97.91
26807;BME280;14380;49.910;6.792;2023-04-06T02:39:43;98938.81;;;0.22;98.94
26807;BME280;14380;49.910;6.792;2023-04-06T02:42:10;98943.94;;;0.32;98.17
26807;BME280;14380;49.910;6.792;2023-04-06T02:44:37;98943.22;;;0.16;98.94
26807;BME280;14380;49.910;6.792;2023-04-06T02:47:04;98941.34;;;0.28;98.32
26807;BME280;14380;49.910;6.792;2023-04-06T02:49:32;98935.50;;;0.11;100.00
26807;BME280;14380;49.910;6.792;2023-04-06T02:51:59;98946.66;;;0.18;99.84
26807;BME280;14380;49.910;6.792;2023-04-06T02:54:25;98940.66;;;0.14;99.83
26807;BME280;14380;49.910;6.792;2023-04-06T02:56:52;98943.16;;;0.25;100.00
26807;BME280;14380;49.910;6.792;2023-04-06T02:59:19;98941.59;;;0.07;100.00
26807;BME280;14380;49.910;6.792;2023-04-06T03:01:45;98947.59;;;0.12;100.00
26807;BME280;14380;49.910;6.792;2023-04-06T03:04:12;98947.59;;;0.12;99.96
26807;BME280;14380;49.910;6.792;2023-04-06T03:06:40;98945.06;;;0.04;100.00
26807;BME280;14380;49.910;6.792;2023-04-06T03:09:07;98944.19;;;0.05;100.00
26807;BME280;14380;49.910;6.792;2023-04-06T03:11:34;98945.19;;;-0.08;100.00
26807;BME280;14380;49.910;6.792;2023-04-06T03:14:01;98943.44;;;-0.06;100.00
26807;BME280;14380;49.910;6.792;2023-04-06T03:16:28;98943.50;;;-0.14;100.00
26807;BME280;14380;49.910;6.792;2023-04-06T03:18:54;98940.81;;;0.00;100.00
26807;BME280;14380;49.910;6.792;2023-04-06T03:21:21;98939.00;;;0.05;100.00
26807;BME280;14380;49.910;6.792;2023-04-06T03:23:49;98944.28;;;-0.03;100.00
26807;BME280;14380;49.910;6.792;2023-04-06T03:26:16;98937.25;;;0.07;99.53
26807;BME280;14380;49.910;6.792;2023-04-06T03:28:43;98945.13;;;-0.01;99.90
26807;BME280;14380;49.910;6.792;2023-04-06T03:31:10;98945.28;;;-0.18;100.00
26807;BME280;14380;49.910;6.792;2023-04-06T03:33:36;98929.56;;;-0.04;100.00
26807;BME280;14380;49.910;6.792;2023-04-06T03:36:04;98928.72;;;-0.06;100.00
26807;BME280;14380;49.910;6.792;2023-04-06T03:38:31;98929.59;;;-0.05;100.00
26807;BME280;14380;49.910;6.792;2023-04-06T03:40:59;98931.34;;;-0.07;100.00
26807;BME280;14380;49.910;6.792;2023-04-06T03:43:25;98936.50;;;-0.01;100.00
26807;BME280;14380;49.910;6.792;2023-04-06T03:45:52;98934.03;;;-0.20;100.00
26807;BME280;14380;49.910;6.792;2023-04-06T03:48:19;98938.22;;;-0.03;100.00
26807;BME280;14380;49.910;6.792;2023-04-06T03:50:46;98936.53;;;-0.09;100.00
26807;BME280;14380;49.910;6.792;2023-04-06T03:53:12;98940.88;;;-0.11;100.00
26807;BME280;14380;49.910;6.792;2023-04-06T03:55:39;98941.78;;;-0.15;100.00
26807;BME280;14380;49.910;6.792;2023-04-06T03:58:07;98944.44;;;-0.23;100.00
26807;BME280;14380;49.910;6.792;2023-04-06T04:00:34;98942.66;;;-0.16;100.00
26807;BME280;14380;49.910;6.792;2023-04-06T04:03:02;98941.81;;;-0.18;100.00
26807;BME280;14380;49.910;6.792;2023-04-06T04:05:28;98940.88;;;-0.11;100.00
26807;BME280;14380;49.910;6.792;2023-04-06T04:07:55;98942.69;;;-0.19;100.00
26807;BME280;14380;49.910;6.792;2023-04-06T04:10:22;98947.91;;;-0.21;100.00
26807;BME280;14380;49.910;6.792;2023-04-06T04:12:49;98944.38;;;-0.15;100.00
26807;BME280;14380;49.910;6.792;2023-04-06T04:15:17;98950.41;;;-0.13;100.00
26807;BME280;14380;49.910;6.792;2023-04-06T04:17:44;98947.09;;;-0.29;100.00
26807;BME280;14380;49.910;6.792;2023-04-06T04:20:14;98947.13;;;-0.31;100.00
26807;BME280;14380;49.910;6.792;2023-04-06T04:22:41;98948.84;;;-0.31;100.00
26807;BME280;14380;49.910;6.792;2023-04-06T04:25:09;98953.13;;;-0.27;100.00
26807;BME280;14380;49.910;6.792;2023-04-06T04:27:35;98961.69;;;-0.17;100.00
26807;BME280;14380;49.910;6.792;2023-04-06T04:30:02;98962.59;;;-0.21;100.00
26807;BME280;14380;49.910;6.792;2023-04-06T04:32:30;98957.50;;;-0.35;100.00
26807;BME280;14380;49.910;6.792;2023-04-06T04:34:57;98956.53;;;-0.19;100.00
26807;BME280;14380;49.910;6.792;2023-04-06T04:37:24;98959.16;;;-0.22;100.00
26807;BME280;14380;49.910;6.792;2023-04-06T04:39:50;98960.91;;;-0.27;100.00
26807;BME280;14380;49.910;6.792;2023-04-06T04:42:17;98953.13;;;-0.25;100.00
26807;BME280;14380;49.910;6.792;2023-04-06T04:44:44;98958.38;;;-0.35;100.00
26807;BME280;14380;49.910;6.792;2023-04-06T04:47:10;98965.38;;;-0.43;100.00
26807;BME280;14380;49.910;6.792;2023-04-06T04:49:38;98959.25;;;-0.33;100.00
26807;BME280;14380;49.910;6.792;2023-04-06T04:52:05;98959.22;;;-0.29;100.00
26807;BME280;14380;49.910;6.792;2023-04-06T04:54:32;98957.47;;;-0.27;100.00
26807;BME280;14380;49.910;6.792;2023-04-06T04:56:59;98962.66;;;-0.29;100.00
26807;BME280;14380;49.910;6.792;2023-04-06T04:59:25;98960.03;;;-0.24;100.00
26807;BME280;14380;49.910;6.792;2023-04-06T05:01:54;98963.56;;;-0.32;100.00
26807;BME280;14380;49.910;6.792;2023-04-06T05:04:22;98973.03;;;-0.29;100.00
26807;BME280;14380;49.910;6.792;2023-04-06T05:06:50;98968.63;;;-0.18;100.00
26807;BME280;14380;49.910;6.792;2023-04-06T05:09:16;98967.75;;;-0.18;100.00
26807;BME280;14380;49.910;6.792;2023-04-06T05:11:44;98972.00;;;-0.08;100.00
26807;BME280;14380;49.910;6.792;2023-04-06T05:14:10;98965.13;;;-0.13;100.00
26807;BME280;14380;49.910;6.792;2023-04-06T05:16:37;98970.31;;;-0.10;100.00
26807;BME280;14380;49.910;6.792;2023-04-06T05:19:04;98974.56;;;-0.03;100.00
26807;BME280;14380;49.910;6.792;2023-04-06T05:21:31;98974.66;;;-0.12;100.00
26807;BME280;14380;49.910;6.792;2023-04-06T05:23:59;98976.16;;;0.10;100.00
26807;BME280;14380;49.910;6.792;2023-04-06T05:26:27;98971.03;;;0.04;100.00
26807;BME280;14380;49.910;6.792;2023-04-06T05:28:54;98972.56;;;0.25;100.00
26807;BME280;14380;49.910;6.792;2023-04-06T05:31:21;98974.19;;;0.36;100.00
26807;BME280;14380;49.910;6.792;2023-04-06T05:33:47;98972.47;;;0.36;100.00
26807;BME280;14380;49.910;6.792;2023-04-06T05:36:14;98974.88;;;0.53;100.00
26807;BME280;14380;49.910;6.792;2023-04-06T05:38:41;98972.09;;;0.69;100.00
26807;BME280;14380;49.910;6.792;2023-04-06T05:41:11;98977.38;;;0.61;100.00
26807;BME280;14380;49.910;6.792;2023-04-06T05:43:38;98972.06;;;0.73;100.00
26807;BME280;14380;49.910;6.792;2023-04-06T05:46:05;98982.31;;;0.86;100.00
26807;BME280;14380;49.910;6.792;2023-04-06T05:48:32;98974.31;;;1.00;100.00
26807;BME280;14380;49.910;6.792;2023-04-06T05:50:59;98978.53;;;1.09;100.00
26807;BME280;14380;49.910;6.792;2023-04-06T05:53:26;98978.63;;;1.02;100.00
26807;BME280;14380;49.910;6.792;2023-04-06T05:55:54;98975.81;;;1.16;100.00
26807;BME280;14380;49.910;6.792;2023-04-06T05:58:23;98973.88;;;1.34;100.00
26807;BME280;14380;49.910;6.792;2023-04-06T06:00:49;98974.03;;;1.22;100.00
26807;BME280;14380;49.910;6.792;2023-04-06T06:03:16;98973.47;;;1.59;100.00
26807;BME280;14380;49.910;6.792;2023-04-06T06:05:43;98974.28;;;1.66;100.00
26807;BME280;14380;49.910;6.792;2023-04-06T06:08:10;98969.59;;;1.88;100.00
26807;BME280;14380;49.910;6.792;2023-04-06T06:10:39;98974.88;;;1.82;100.00
26807;BME280;14380;49.910;6.792;2023-04-06T06:13:06;98977.88;;;2.10;100.00
26807;BME280;14380;49.910;6.792;2023-04-06T06:15:37;98976.91;;;2.16;100.00
26807;BME280;14380;49.910;6.792;2023-04-06T06:18:05;98978.53;;;2.21;100.00
26807;BME280;14380;49.910;6.792;2023-04-06T06:20:32;98974.44;;;2.57;100.00
26807;BME280;14380;49.910;6.792;2023-04-06T06:23:04;98977.63;;;2.71;100.00
26807;BME280;14380;49.910;6.792;2023-04-06T06:25:31;98971.75;;;2.61;100.00
26807;BME280;14380;49.910;6.792;2023-04-06T06:27:59;98973.94;;;2.37;100.00
26807;BME280;14380;49.910;6.792;2023-04-06T06:30:25;98976.22;;;2.55;98.88
26807;BME280;14380;49.910;6.792;2023-04-06T06:32:54;98974.84;;;2.80;97.08
26807;BME280;14380;49.910;6.792;2023-04-06T06:35:20;98970.03;;;2.60;99.38
26807;BME280;14380;49.910;6.792;2023-04-06T06:37:47;98971.41;;;2.78;98.63
26807;BME280;14380;49.910;6.792;2023-04-06T06:40:14;98970.16;;;2.98;97.39
26807;BME280;14380;49.910;6.792;2023-04-06T06:42:43;98964.44;;;3.20;95.31
26807;BME280;14380;49.910;6.792;2023-04-06T06:45:10;98975.47;;;3.33;97.95
26807;BME280;14380;49.910;6.792;2023-04-06T06:47:37;98973.75;;;3.32;96.57
26807;BME280;14380;49.910;6.792;2023-04-06T06:50:06;98971.00;;;3.39;96.69
26807;BME280;14380;49.910;6.792;2023-04-06T06:52:33;98976.50;;;3.65;97.77
26807;BME280;14380;49.910;6.792;2023-04-06T06:55:00;98971.63;;;3.49;94.93
26807;BME280;14380;49.910;6.792;2023-04-06T06:57:27;98963.88;;;3.82;91.29
26807;BME280;14380;49.910;6.792;2023-04-06T06:59:54;98965.38;;;3.93;91.90
26807;BME280;14380;49.910;6.792;2023-04-06T07:02:21;98962.25;;;4.14;91.92
26807;BME280;14380;49.910;6.792;2023-04-06T07:04:48;98962.25;;;4.14;89.53
26807;BME280;14380;49.910;6.792;2023-04-06T07:07:16;98957.34;;;4.35;91.47
26807;BME280;14380;49.910;6.792;2023-04-06T07:09:43;98957.25;;;4.38;89.98
26807;BME280;14380;49.910;6.792;2023-04-06T07:12:10;98951.47;;;4.60;89.79
26807;BME280;14380;49.910;6.792;2023-04-06T07:14:37;98947.72;;;4.99;89.44
26807;BME280;14380;49.910;6.792;2023-04-06T07:17:03;98943.44;;;4.96;88.13
26807;BME280;14380;49.910;6.792;2023-04-06T07:19:30;98945.69;;;5.37;87.33
26807;BME280;14380;49.910;6.792;2023-04-06T07:21:57;98950.09;;;5.36;85.89
26807;BME280;14380;49.910;6.792;2023-04-06T07:24:25;98944.94;;;5.62;84.71
26807;BME280;14380;49.910;6.792;2023-04-06T07:26:52;98948.47;;;5.88;87.29
26807;BME280;14380;49.910;6.792;2023-04-06T07:29:19;98940.94;;;6.05;86.97
26807;BME280;14380;49.910;6.792;2023-04-06T07:31:46;98943.91;;;5.94;85.93
26807;BME280;14380;49.910;6.792;2023-04-06T07:34:14;98938.47;;;6.01;85.18
26807;BME280;14380;49.910;6.792;2023-04-06T07:36:40;98946.13;;;6.07;85.53
26807;BME280;14380;49.910;6.792;2023-04-06T07:39:07;98935.72;;;6.31;85.01
26807;BME280;14380;49.910;6.792;2023-04-06T07:41:36;98933.06;;;6.56;81.91
26807;BME280;14380;49.910;6.792;2023-04-06T07:44:03;98930.97;;;6.66;81.44
26807;BME280;14380;49.910;6.792;2023-04-06T07:46:30;98932.09;;;6.59;81.69
26807;BME280;14380;49.910;6.792;2023-04-06T07:48:59;98929.50;;;6.82;82.32
26807;BME280;14380;49.910;6.792;2023-04-06T07:51:26;98940.44;;;6.70;81.83
26807;BME280;14380;49.910;6.792;2023-04-06T07:53:52;98927.91;;;6.78;81.47
26807;BME280;14380;49.910;6.792;2023-04-06T07:56:19;98927.44;;;6.67;80.43
26807;BME280;14380;49.910;6.792;2023-04-06T07:58:48;98919.34;;;7.19;82.63
26807;BME280;14380;49.910;6.792;2023-04-06T08:01:15;98925.34;;;7.23;82.73
26807;BME280;14380;49.910;6.792;2023-04-06T08:03:42;98927.16;;;6.98;82.80
26807;BME280;14380;49.910;6.792;2023-04-06T08:06:08;98933.03;;;7.27;84.22
26807;BME280;14380;49.910;6.792;2023-04-06T08:08:35;98930.50;;;7.48;83.83
26807;BME280;14380;49.910;6.792;2023-04-06T08:11:02;98928.66;;;7.50;80.94
26807;BME280;14380;49.910;6.792;2023-04-06T08:13:29;98927.34;;;7.83;80.25
26807;BME280;14380;49.910;6.792;2023-04-06T08:15:57;98927.03;;;8.11;81.50
26807;BME280;14380;49.910;6.792;2023-04-06T08:18:25;98926.38;;;8.27;79.57
26807;BME280;14380;49.910;6.792;2023-04-06T08:20:52;98922.75;;;8.29;80.78
26807;BME280;14380;49.910;6.792;2023-04-06T08:23:18;98924.09;;;8.60;78.92
26807;BME280;14380;49.910;6.792;2023-04-06T08:25:45;98931.63;;;8.68;80.37
26807;BME280;14380;49.910;6.792;2023-04-06T08:28:12;98928.63;;;8.57;76.98
26807;BME280;14380;49.910;6.792;2023-04-06T08:30:39;98928.63;;;8.97;77.69
26807;BME280;14380;49.910;6.792;2023-04-06T08:33:07;98930.25;;;8.39;78.66
26807;BME280;14380;49.910;6.792;2023-04-06T08:35:34;98924.53;;;8.70;78.04
26807;BME280;14380;49.910;6.792;2023-04-06T08:38:01;98927.31;;;8.86;79.00
26807;BME280;14380;49.910;6.792;2023-04-06T08:40:28;98916.06;;;9.21;77.71
26807;BME280;14380;49.910;6.792;2023-04-06T08:42:56;98914.19;;;9.42;75.98
26807;BME280;14380;49.910;6.792;2023-04-06T08:45:23;98920.31;;;9.43;75.15
26807;BME280;14380;49.910;6.792;2023-04-06T08:47:50;98920.13;;;9.65;76.13
26807;BME280;14380;49.910;6.792;2023-04-06T08:50:20;98921.56;;;9.90;70.56
26807;BME280;14380;49.910;6.792;2023-04-06T08:52:48;98916.44;;;10.22;67.47
26807;BME280;14380;49.910;6.792;2023-04-06T08:55:15;98915.97;;;10.82;67.04
26807;BME280;14380;49.910;6.792;2023-04-06T08:57:42;98910.38;;;10.37;65.69
26807;BME280;14380;49.910;6.792;2023-04-06T09:00:11;98910.25;;;10.90;66.70
26807;BME280;14380;49.910;6.792;2023-04-06T09:02:39;98921.00;;;10.53;63.83
26807;BME280;14380;49.910;6.792;2023-04-06T09:05:07;98909.53;;;10.54;65.64
26807;BME280;14380;49.910;6.792;2023-04-06T09:07:36;98915.09;;;10.82;62.81
26807;BME280;14380;49.910;6.792;2023-04-06T09:10:03;98913.44;;;10.97;62.65
26807;BME280;14380;49.910;6.792;2023-04-06T09:12:31;98913.50;;;11.11;60.23
26807;BME280;14380;49.910;6.792;2023-04-06T09:14:59;98901.66;;;11.03;62.94
26807;BME280;14380;49.910;6.792;2023-04-06T09:17:28;98907.03;;;11.49;60.94
26807;BME280;14380;49.910;6.792;2023-04-06T09:19:55;98901.63;;;11.51;61.10
26807;BME280;14380;49.910;6.792;2023-04-06T09:22:22;98901.84;;;11.78;61.40
26807;BME280;14380;49.910;6.792;2023-04-06T09:24:53;98899.00;;;11.51;58.83
26807;BME280;14380;49.910;6.792;2023-04-06T09:27:30;98904.47;;;11.48;57.66
26807;BME280;14380;49.910;6.792;2023-04-06T09:30:03;98903.97;;;11.41;59.06
26807;BME280;14380;49.910;6.792;2023-04-06T09:32:30;98895.94;;;12.05;59.33
26807;BME280;14380;49.910;6.792;2023-04-06T09:35:05;98897.94;;;11.69;58.64
26807;BME280;14380;49.910;6.792;2023-04-06T09:37:32;98895.59;;;11.65;57.82
26807;BME280;14380;49.910;6.792;2023-04-06T09:40:04;98898.50;;;11.44;57.20
26807;BME280;14380;49.910;6.792;2023-04-06T09:42:31;98901.75;;;11.01;55.75
26807;BME280;14380;49.910;6.792;2023-04-06T09:44:58;98897.50;;;11.77;59.17
26807;BME280;14380;49.910;6.792;2023-04-06T09:47:25;98896.19;;;11.84;56.38
26807;BME280;14380;49.910;6.792;2023-04-06T09:49:56;98898.00;;;11.37;55.72
26807;BME280;14380;49.910;6.792;2023-04-06T09:52:26;98897.66;;;11.74;55.62
26807;BME280;14380;49.910;6.792;2023-04-06T09:54:55;98894.09;;;11.75;56.92
26807;BME280;14380;49.910;6.792;2023-04-06T09:57:30;98887.09;;;11.74;56.14
26807;BME280;14380;49.910;6.792;2023-04-06T10:00:03;98893.47;;;11.86;56.08
26807;BME280;14380;49.910;6.792;2023-04-06T10:02:45;98895.00;;;12.20;56.21
26807;BME280;14380;49.910;6.792;2023-04-06T10:05:20;98898.28;;;12.55;57.42
26807;BME280;14380;49.910;6.792;2023-04-06T10:07:50;98893.47;;;12.02;56.88
26807;BME280;14380;49.910;6.792;2023-04-06T10:10:20;98897.09;;;12.30;54.95
26807;BME280;14380;49.910;6.792;2023-04-06T10:12:49;98896.38;;;12.57;57.14
26807;BME280;14380;49.910;6.792;2023-04-06T10:15:16;98888.44;;;12.57;55.59
26807;BME280;14380;49.910;6.792;2023-04-06T10:17:43;98888.31;;;12.44;56.27
26807;BME280;14380;49.910;6.792;2023-04-06T10:20:12;98886.13;;;12.65;56.42
26807;BME280;14380;49.910;6.792;2023-04-06T10:22:44;98884.81;;;12.87;56.77
26807;BME280;14380;49.910;6.792;2023-04-06T10:25:16;98876.84;;;13.01;56.69
26807;BME280;14380;49.910;6.792;2023-04-06T10:27:42;98882.78;;;13.05;55.18
26807;BME280;14380;49.910;6.792;2023-04-06T10:30:15;98880.53;;;12.99;55.76
26807;BME280;14380;49.910;6.792;2023-04-06T10:32:42;98881.22;;;12.88;56.78
26807;BME280;14380;49.910;6.792;2023-04-06T10:35:10;98880.00;;;12.79;55.68
26807;BME280;14380;49.910;6.792;2023-04-06T10:37:51;98875.06;;;12.58;55.24
26807;BME280;14380;49.910;6.792;2023-04-06T10:40:20;98876.88;;;12.43;56.70
26807;BME280;14380;49.910;6.792;2023-04-06T10:42:48;98873.34;;;12.86;57.56
26807;BME280;14380;49.910;6.792;2023-04-06T10:45:35;98878.56;;;12.88;57.17
26807;BME280;14380;49.910;6.792;2023-04-06T10:48:12;98876.22;;;13.25;57.40
26807;BME280;14380;49.910;6.792;2023-04-06T10:50:39;98870.28;;;13.21;55.86
26807;BME280;14380;49.910;6.792;2023-04-06T10:53:06;98878.88;;;13.80;57.32
26807;BME280;14380;49.910;6.792;2023-04-06T10:55:34;98870.78;;;13.27;54.94
26807;BME280;14380;49.910;6.792;2023-04-06T10:58:01;98869.97;;;13.26;55.67
26807;BME280;14380;49.910;6.792;2023-04-06T11:00:29;98872.81;;;13.65;54.10
26807;BME280;14380;49.910;6.792;2023-04-06T11:02:59;98871.91;;;13.51;55.11
26807;BME280;14380;49.910;6.792;2023-04-06T11:05:26;98872.50;;;13.82;53.74
26807;BME280;14380;49.910;6.792;2023-04-06T11:07:53;98867.16;;;13.70;54.20
26807;BME280;14380;49.910;6.792;2023-04-06T11:10:21;98857.06;;;13.34;53.83
26807;BME280;14380;49.910;6.792;2023-04-06T11:12:53;98867.41;;;13.24;54.47
26807;BME280;14380;49.910;6.792;2023-04-06T11:15:20;98865.59;;;13.25;54.50
26807;BME280;14380;49.910;6.792;2023-04-06T11:17:49;98859.28;;;13.55;56.56
26807;BME280;14380;49.910;6.792;2023-04-06T11:20:17;98857.25;;;13.31;53.95
26807;BME280;14380;49.910;6.792;2023-04-06T11:22:49;98865.56;;;13.12;54.47
26807;BME280;14380;49.910;6.792;2023-04-06T11:25:16;98859.25;;;13.28;56.32
26807;BME280;14380;49.910;6.792;2023-04-06T11:27:44;98858.25;;;13.71;56.22
26807;BME280;14380;49.910;6.792;2023-04-06T11:30:13;98854.72;;;13.57;56.00
26807;BME280;14380;49.910;6.792;2023-04-06T11:32:41;98860.88;;;13.58;56.24
26807;BME280;14380;49.910;6.792;2023-04-06T11:35:21;98857.31;;;13.72;56.74
26807;BME280;14380;49.910;6.792;2023-04-06T11:37:48;98851.94;;;13.46;56.56
26807;BME280;14380;49.910;6.792;2023-04-06T11:40:15;98851.28;;;13.42;56.71
26807;BME280;14380;49.910;6.792;2023-04-06T11:42:52;98850.44;;;13.95;58.01
26807;BME280;14380;49.910;6.792;2023-04-06T11:45:19;98847.72;;;14.09;56.69
26807;BME280;14380;49.910;6.792;2023-04-06T11:47:55;98845.13;;;13.82;56.36
26807;BME280;14380;49.910;6.792;2023-04-06T11:50:31;98844.50;;;13.51;56.95
26807;BME280;14380;49.910;6.792;2023-04-06T11:52:59;98840.66;;;13.42;56.35
26807;BME280;14380;49.910;6.792;2023-04-06T11:55:27;98846.72;;;13.44;57.27
26807;BME280;14380;49.910;6.792;2023-04-06T11:57:54;98849.00;;;13.36;56.82
26807;BME280;14380;49.910;6.792;2023-04-06T12:00:21;98855.44;;;13.46;58.75
26807;BME280;14380;49.910;6.792;2023-04-06T12:02:48;98844.09;;;13.30;58.20
26807;BME280;14380;49.910;6.792;2023-04-06T12:05:16;98855.22;;;13.07;57.74
26807;BME280;14380;49.910;6.792;2023-04-06T12:07:44;98849.50;;;13.43;59.00
26807;BME280;14380;49.910;6.792;2023-04-06T12:10:11;98854.53;;;12.76;58.62
26807;BME280;14380;49.910;6.792;2023-04-06T12:12:39;98850.47;;;12.71;60.28
26807;BME280;14380;49.910;6.792;2023-04-06T12:15:07;98860.31;;;12.69;58.94
26807;BME280;14380;49.910;6.792;2023-04-06T12:17:34;98854.81;;;12.43;59.00
26807;BME280;14380;49.910;6.792;2023-04-06T12:20:02;98858.56;;;12.97;58.90
26807;BME280;14380;49.910;6.792;2023-04-06T12:22:29;98855.00;;;12.83;60.29
26807;BME280;14380;49.910;6.792;2023-04-06T12:24:58;98857.63;;;12.98;58.82
26807;BME280;14380;49.910;6.792;2023-04-06T12:27:24;98850.34;;;13.01;61.22
26807;BME280;14380;49.910;6.792;2023-04-06T12:29:51;98858.97;;;13.32;59.71
26807;BME280;14380;49.910;6.792;2023-04-06T12:32:19;98854.75;;;13.15;59.76
26807;BME280;14380;49.910;6.792;2023-04-06T12:34:45;98854.41;;;12.92;59.73
26807;BME280;14380;49.910;6.792;2023-04-06T12:37:12;98850.16;;;12.90;60.17
26807;BME280;14380;49.910;6.792;2023-04-06T12:39:40;98851.28;;;13.28;60.99
26807;BME280;14380;49.910;6.792;2023-04-06T12:42:11;98853.00;;;13.29;60.91
26807;BME280;14380;49.910;6.792;2023-04-06T12:44:39;98855.59;;;13.16;62.06
26807;BME280;14380;49.910;6.792;2023-04-06T12:47:08;98864.25;;;13.05;61.01
26807;BME280;14380;49.910;6.792;2023-04-06T12:49:36;98860.03;;;12.44;60.53
26807;BME280;14380;49.910;6.792;2023-04-06T12:52:03;98860.31;;;12.69;63.18
26807;BME280;14380;49.910;6.792;2023-04-06T12:54:29;98860.03;;;12.30;61.62
26807;BME280;14380;49.910;6.792;2023-04-06T12:56:56;98854.66;;;12.31;64.77
26807;BME280;14380;49.910;6.792;2023-04-06T12:59:24;98850.88;;;12.36;63.40
26807;BME280;14380;49.910;6.792;2023-04-06T13:01:52;98851.06;;;12.32;64.34
26807;BME280;14380;49.910;6.792;2023-04-06T13:04:19;98854.16;;;12.25;64.28